Security, Texas
Current Conditions -  °F | °C
As of 4:30 AM on Wednesday 22 Oct 2014 (Local Time) from K6R3 Reporting Station
Clear Clear  
Wind Chill: 58°   Ceiling: Unl
Heat Index: 58°   Visibility: 7mi
Dew Point: 58°   Wind: 0mph
Humidity: 98%   Direction: NA
Pressure: 30.05"   Gusts: NA
Location:  30.2945°N, 94.9711°W
Report Text: K6R3 220930Z AUTO 00000KT 7SM CLR 15/14 A3005 RMK AO2 T01450142
Loading
Personal Weather Stations






























Interactive Weather Map
Tropical Storm Tracking
New forecast layout! Learn more

10-Day Weather Forecast

Advertisements
Track Severe Weather on mobile